createdAt,value
2018-03-03T00:01:46.398Z,34.40
2018-03-03T00:04:13.878Z,36.77
2018-03-03T00:06:42.138Z,36.43
2018-03-03T00:09:09.607Z,37.23
2018-03-03T00:11:37.091Z,36.90
2018-03-03T00:14:04.600Z,36.53
2018-03-03T00:16:32.074Z,37.92
2018-03-03T00:18:59.558Z,37.00
2018-03-03T00:21:27.056Z,36.80
2018-03-03T00:23:54.536Z,40.80
2018-03-03T00:26:22.278Z,39.53
2018-03-03T00:28:49.753Z,40.08
2018-03-03T00:31:17.235Z,39.72
2018-03-03T00:33:45.894Z,40.92
2018-03-03T00:36:13.373Z,40.15
2018-03-03T00:38:41.610Z,41.33
2018-03-03T00:41:09.104Z,42.75
2018-03-03T00:43:36.595Z,39.40
2018-03-03T00:46:04.088Z,39.83
2018-03-03T00:48:31.563Z,45.72
2018-03-03T00:50:59.048Z,43.90
2018-03-03T00:53:27.274Z,44.53
2018-03-03T00:55:55.140Z,41.67
2018-03-03T00:58:23.256Z,44.92
2018-03-03T01:00:51.504Z,46.10
2018-03-03T01:03:18.978Z,46.33
2018-03-03T01:05:47.252Z,46.97
2018-03-03T01:08:14.722Z,45.38
2018-03-03T01:10:42.974Z,44.47
2018-03-03T01:13:10.484Z,45.28
2018-03-03T01:15:38.879Z,47.85
2018-03-03T01:18:06.354Z,42.08
2018-03-03T01:20:34.758Z,44.83
2018-03-03T01:23:02.324Z,45.97
2018-03-03T01:25:30.562Z,46.60
2018-03-03T01:27:58.079Z,45.15
2018-03-03T01:30:25.556Z,43.67
2018-03-03T01:32:53.027Z,43.97
2018-03-03T01:35:20.505Z,44.70
2018-03-03T01:37:47.975Z,44.40
2018-03-03T01:40:16.283Z,44.70
2018-03-03T01:42:43.787Z,44.20
2018-03-03T01:45:11.274Z,46.58
2018-03-03T01:47:39.506Z,44.00
2018-03-03T01:50:06.999Z,44.75
2018-03-03T01:52:34.478Z,43.92
2018-03-03T01:55:01.957Z,44.60
2018-03-03T01:57:29.444Z,47.22
2018-03-03T01:59:57.859Z,43.95
2018-03-03T02:02:26.103Z,44.15
2018-03-03T02:04:54.415Z,46.17
2018-03-03T02:07:22.660Z,46.40
2018-03-03T02:09:50.148Z,48.55
2018-03-03T02:12:18.402Z,46.30
2018-03-03T02:14:46.788Z,44.13
2018-03-03T02:17:15.038Z,44.45
2018-03-03T02:19:42.570Z,45.77
2018-03-03T02:22:10.058Z,46.08
2018-03-03T02:24:38.236Z,44.88
2018-03-03T02:27:05.750Z,46.50
2018-03-03T02:29:33.219Z,45.28
2018-03-03T02:32:00.684Z,46.15
2018-03-03T02:34:28.936Z,44.90
2018-03-03T02:36:56.407Z,43.20
2018-03-03T02:39:23.921Z,44.97
2018-03-03T02:41:52.171Z,45.65
2018-03-03T02:44:19.647Z,43.63
2018-03-03T02:46:47.143Z,44.53
2018-03-03T02:49:14.712Z,45.85
2018-03-03T02:51:42.205Z,44.25
2018-03-03T02:54:09.684Z,42.47
2018-03-03T02:56:37.168Z,45.90
2018-03-03T02:59:04.664Z,45.20
2018-03-03T03:01:32.912Z,45.42
2018-03-03T03:04:00.421Z,44.92
2018-03-03T03:06:27.923Z,45.90
2018-03-03T03:08:56.214Z,46.03
2018-03-03T03:11:23.708Z,47.38
2018-03-03T03:13:51.183Z,47.13
2018-03-03T03:16:19.503Z,45.78
2018-03-03T03:18:47.010Z,44.33
2018-03-03T03:21:15.259Z,45.72
2018-03-03T03:23:42.731Z,46.20
2018-03-03T03:26:10.218Z,44.00
2018-03-03T03:28:37.719Z,46.78
2018-03-03T03:31:05.196Z,44.83
2018-03-03T03:33:32.679Z,43.40
2018-03-03T03:36:00.938Z,40.67
2018-03-03T03:38:28.418Z,42.03
2018-03-03T03:40:56.712Z,41.05
2018-03-03T03:43:24.204Z,38.38
2018-03-03T03:45:51.691Z,37.97
2018-03-03T03:48:19.237Z,38.73
2018-03-03T03:50:46.704Z,41.97
2018-03-03T03:53:14.182Z,41.07
2018-03-03T03:55:42.428Z,38.50
2018-03-03T03:58:09.914Z,39.50
2018-03-03T04:00:38.222Z,38.80
2018-03-03T04:03:05.703Z,40.30
2018-03-03T04:05:33.191Z,39.92
2018-03-03T04:08:00.671Z,37.53
2018-03-03T04:10:28.162Z,38.33
2018-03-03T04:12:55.675Z,37.87
2018-03-03T04:15:23.923Z,40.12
2018-03-03T04:17:51.402Z,36.70
2018-03-03T04:20:19.657Z,38.97
2018-03-03T04:22:47.145Z,37.73
2018-03-03T04:25:15.430Z,35.95
2018-03-03T04:27:42.894Z,35.50
2018-03-03T04:30:10.393Z,39.50
2018-03-03T04:32:38.774Z,38.17
2018-03-03T04:35:06.267Z,37.20
2018-03-03T04:37:34.509Z,37.80
2018-03-03T04:40:02.015Z,37.88
2018-03-03T04:42:29.491Z,37.80
2018-03-03T04:44:56.990Z,37.50
2018-03-03T04:47:24.470Z,36.65
2018-03-03T04:49:52.735Z,35.55
2018-03-03T04:52:20.215Z,37.25
2018-03-03T04:54:47.683Z,36.00
2018-03-03T04:57:15.309Z,37.63
2018-03-03T04:59:43.610Z,36.60
2018-03-03T05:02:26.909Z,39.47
2018-03-03T05:05:09.272Z,35.87
2018-03-03T05:07:52.421Z,36.50
2018-03-03T05:10:29.819Z,38.03
2018-03-03T05:16:21.723Z,35.83
2018-03-03T05:18:54.782Z,36.47
2018-03-03T05:21:28.858Z,36.38
2018-03-03T05:24:11.222Z,36.35
2018-03-03T05:26:44.320Z,37.90
2018-03-03T05:29:15.454Z,37.65
2018-03-03T05:31:48.658Z,35.38
2018-03-03T05:37:28.738Z,36.03
2018-03-03T05:40:11.090Z,35.25
2018-03-03T05:42:44.939Z,37.03
2018-03-03T05:45:18.036Z,35.95
2018-03-03T05:47:51.255Z,36.88
2018-03-03T05:50:24.489Z,40.85
2018-03-03T05:53:10.447Z,40.03
2018-03-03T05:55:43.474Z,39.42
2018-03-03T05:58:17.143Z,40.40
2018-03-03T06:01:01.347Z,37.50
2018-03-03T06:03:28.830Z,40.92
2018-03-03T06:05:59.770Z,38.58
2018-03-03T06:08:27.839Z,41.47
2018-03-03T06:10:56.756Z,40.95
2018-03-03T06:13:25.002Z,40.65
2018-03-03T06:15:52.484Z,40.55
2018-03-03T06:18:20.734Z,41.00
2018-03-03T06:20:48.213Z,40.58
2018-03-03T06:23:15.707Z,40.67
2018-03-03T06:25:43.222Z,39.50
2018-03-03T06:28:10.702Z,40.78
2018-03-03T06:30:38.951Z,41.33
2018-03-03T06:33:06.518Z,38.75
2018-03-03T06:35:35.186Z,38.13
2018-03-03T06:38:02.699Z,41.88
2018-03-03T06:40:30.938Z,39.42
2018-03-03T06:42:59.187Z,40.07
2018-03-03T06:45:26.675Z,43.42
2018-03-03T06:47:54.963Z,42.38
2018-03-03T06:50:23.199Z,43.70
2018-03-03T06:52:50.686Z,43.70
2018-03-03T06:55:18.955Z,42.22
2018-03-03T06:57:47.211Z,40.67
2018-03-03T07:00:14.697Z,43.80
2018-03-03T07:02:42.942Z,42.75
2018-03-03T07:05:10.443Z,42.30
2018-03-03T07:07:38.704Z,43.03
2018-03-03T07:10:06.938Z,43.47
2018-03-03T07:12:34.436Z,42.65
2018-03-03T07:15:02.722Z,43.28
2018-03-03T07:17:30.954Z,40.92
2018-03-03T07:19:58.470Z,41.92
2018-03-03T07:22:26.833Z,44.53
2018-03-03T07:24:54.288Z,42.03
2018-03-03T07:27:22.535Z,42.47
2018-03-03T07:29:50.010Z,43.70
2018-03-03T07:32:18.260Z,42.13
2018-03-03T07:34:45.751Z,41.80
2018-03-03T07:37:13.997Z,44.53
2018-03-03T07:39:41.491Z,42.47
2018-03-03T07:42:08.996Z,44.08
2018-03-03T07:44:36.490Z,44.00
2018-03-03T07:47:04.755Z,40.60
2018-03-03T07:49:32.263Z,41.33
2018-03-03T07:51:59.746Z,40.88
2018-03-03T07:54:27.245Z,43.42
2018-03-03T07:57:06.628Z,40.90
2018-03-03T07:59:34.111Z,42.08
2018-03-03T08:02:01.623Z,39.17
2018-03-03T08:04:29.102Z,41.17
2018-03-03T08:06:56.574Z,40.50
2018-03-03T08:09:24.067Z,39.75
2018-03-03T08:11:51.664Z,41.05
2018-03-03T08:14:20.563Z,39.28
2018-03-03T08:16:48.410Z,39.90
2018-03-03T08:19:19.120Z,40.30
2018-03-03T08:21:46.597Z,38.87
2018-03-03T08:24:14.083Z,38.67
2018-03-03T08:26:41.571Z,39.77
2018-03-03T08:29:09.043Z,39.63
2018-03-03T08:31:37.319Z,37.07
2018-03-03T08:34:05.563Z,40.60
2018-03-03T08:36:33.034Z,40.20
2018-03-03T08:39:00.504Z,36.63
2018-03-03T08:41:29.609Z,39.47
2018-03-03T08:43:57.144Z,36.97
2018-03-03T08:46:25.586Z,39.37
2018-03-03T08:48:53.067Z,40.83
2018-03-03T08:51:20.545Z,39.47
2018-03-03T08:53:48.027Z,38.93
2018-03-03T08:56:19.998Z,39.83
2018-03-03T08:58:50.089Z,38.33
2018-03-03T09:01:17.626Z,38.03
2018-03-03T09:03:45.131Z,38.53
2018-03-03T09:06:12.606Z,40.00
2018-03-03T09:08:40.082Z,40.73
2018-03-03T09:11:07.551Z,38.17
2018-03-03T09:13:35.024Z,38.87
2018-03-03T09:16:02.503Z,37.30
2018-03-03T09:18:30.004Z,38.73
2018-03-03T09:20:58.390Z,40.53
2018-03-03T09:23:25.858Z,36.80
2018-03-03T09:25:53.322Z,39.93
2018-03-03T09:28:20.782Z,39.87
2018-03-03T09:30:48.274Z,40.03
2018-03-03T09:33:15.795Z,36.70
2018-03-03T09:35:43.258Z,38.50
2018-03-03T09:38:10.739Z,38.27
2018-03-03T09:40:38.972Z,38.47
2018-03-03T09:43:06.435Z,37.43
2018-03-03T09:45:33.937Z,39.63
2018-03-03T09:48:01.399Z,35.60
2018-03-03T09:50:28.875Z,39.23
2018-03-03T09:52:56.408Z,41.63
2018-03-03T09:55:23.894Z,41.10
2018-03-03T09:57:51.362Z,40.30
2018-03-03T10:00:18.858Z,39.87
2018-03-03T10:02:47.096Z,40.50
2018-03-03T10:05:14.563Z,39.70
2018-03-03T10:07:42.856Z,39.20
2018-03-03T10:10:10.450Z,39.27
2018-03-03T10:12:37.906Z,38.70
2018-03-03T10:15:05.413Z,40.00
2018-03-03T10:17:32.915Z,38.30
2018-03-03T10:20:01.142Z,38.57
2018-03-03T10:22:28.670Z,38.53
2018-03-03T10:24:56.496Z,44.37
2018-03-03T10:27:23.971Z,40.10
2018-03-03T10:29:51.454Z,40.90
2018-03-03T10:32:18.923Z,38.87
2018-03-03T10:34:46.384Z,38.83
2018-03-03T10:37:14.618Z,39.47
2018-03-03T10:39:42.843Z,41.10
2018-03-03T10:42:10.323Z,40.60
2018-03-03T10:44:37.801Z,39.80
2018-03-03T10:47:06.031Z,41.73
2018-03-03T10:49:33.501Z,40.13
2018-03-03T10:52:00.975Z,42.30
2018-03-03T10:54:29.207Z,40.43
2018-03-03T10:56:56.673Z,43.63
2018-03-03T10:59:24.150Z,42.63
2018-03-03T11:01:51.608Z,44.07
2018-03-03T11:04:19.067Z,44.00
2018-03-03T11:06:47.322Z,42.80
2018-03-03T11:09:14.799Z,41.47
2018-03-03T11:11:42.308Z,44.37
2018-03-03T11:14:09.775Z,41.00
2018-03-03T11:16:37.234Z,41.83
2018-03-03T11:19:04.708Z,42.53
2018-03-03T11:21:32.187Z,43.70
2018-03-03T11:23:59.648Z,43.20
2018-03-03T11:26:27.883Z,44.67
2018-03-03T11:28:55.367Z,45.63
2018-03-03T11:31:22.827Z,45.00
2018-03-03T11:33:51.155Z,46.07
2018-03-03T11:36:18.647Z,47.00
2018-03-03T11:38:46.110Z,46.30
2018-03-03T11:41:13.572Z,45.97
2018-03-03T11:43:41.043Z,44.10
2018-03-03T11:46:09.278Z,46.53
2018-03-03T11:48:36.790Z,46.80
2018-03-03T11:51:05.035Z,44.70
2018-03-03T11:53:32.510Z,45.87
2018-03-03T11:56:00.767Z,45.27
2018-03-03T11:58:28.238Z,47.20
2018-03-03T12:00:55.706Z,47.90
2018-03-03T12:03:23.931Z,45.07
2018-03-03T12:05:51.394Z,45.17
2018-03-03T12:08:18.875Z,43.93
2018-03-03T12:10:46.355Z,45.20
2018-03-03T12:13:14.586Z,47.40
2018-03-03T12:15:42.079Z,48.37
2018-03-03T12:18:10.324Z,46.47
2018-03-03T12:20:39.538Z,44.20
2018-03-03T12:23:07.007Z,44.80
2018-03-03T12:25:34.506Z,47.43
2018-03-03T12:28:01.980Z,45.27
2018-03-03T12:30:29.451Z,47.47
2018-03-03T12:32:56.929Z,47.70
2018-03-03T12:35:26.042Z,48.97
2018-03-03T12:37:53.534Z,46.53
2018-03-03T12:40:21.015Z,45.70
2018-03-03T12:42:48.488Z,44.47
2018-03-03T12:45:15.946Z,45.97
2018-03-03T12:47:43.418Z,46.77
2018-03-03T12:50:11.668Z,45.93
2018-03-03T12:52:39.140Z,44.37
2018-03-03T12:55:06.611Z,46.17
2018-03-03T12:57:34.862Z,46.60
2018-03-03T13:00:02.337Z,45.63
2018-03-03T13:02:30.571Z,47.03
2018-03-03T13:04:58.057Z,44.80
2018-03-03T13:07:25.529Z,44.13
2018-03-03T13:09:53.015Z,45.13
2018-03-03T13:12:20.518Z,44.23
2018-03-03T13:14:47.983Z,44.50
2018-03-03T13:17:15.471Z,45.20
2018-03-03T13:19:42.950Z,47.13
2018-03-03T13:22:10.451Z,43.57
2018-03-03T13:24:38.824Z,48.43
2018-03-03T13:27:06.323Z,44.90
2018-03-03T13:29:34.799Z,46.73
2018-03-03T13:32:02.292Z,46.00
2018-03-03T13:34:29.762Z,44.87
2018-03-03T13:36:57.243Z,44.67
2018-03-03T13:39:24.730Z,46.77
2018-03-03T13:41:52.195Z,44.77
2018-03-03T13:44:19.675Z,45.43
2018-03-03T13:46:47.174Z,46.00
2018-03-03T13:49:14.628Z,45.40
2018-03-03T13:51:42.096Z,47.80
2018-03-03T13:54:10.368Z,44.77
2018-03-03T13:56:38.452Z,44.27
2018-03-03T13:59:06.694Z,47.50
2018-03-03T14:01:34.202Z,48.60
2018-03-03T14:04:01.689Z,44.43
2018-03-03T14:06:29.158Z,45.27
2018-03-03T14:08:56.659Z,47.57
2018-03-03T14:11:24.914Z,45.57
2018-03-03T14:13:52.488Z,46.23
2018-03-03T14:16:20.737Z,45.80
2018-03-03T14:18:48.218Z,44.60
2018-03-03T14:21:16.458Z,45.30
2018-03-03T14:23:43.938Z,44.40
2018-03-03T14:26:12.183Z,47.90
2018-03-03T14:28:39.686Z,45.10
2018-03-03T14:31:07.155Z,47.37
2018-03-03T14:33:34.625Z,48.10
2018-03-03T14:36:02.123Z,48.10
2018-03-03T14:38:29.590Z,45.37
2018-03-03T14:40:57.259Z,47.87
2018-03-03T14:43:24.739Z,48.03
2018-03-03T14:45:52.962Z,46.53
2018-03-03T14:48:20.428Z,47.67
2018-03-03T14:50:48.824Z,47.20
2018-03-03T14:53:16.323Z,45.30
2018-03-03T14:55:43.801Z,43.67
2018-03-03T14:58:11.274Z,49.50
2018-03-03T15:00:38.760Z,67.57
2018-03-03T15:03:07.086Z,49.77
2018-03-03T15:05:34.803Z,45.57
2018-03-03T15:08:03.028Z,46.03
2018-03-03T15:10:30.502Z,47.60
2018-03-03T15:12:58.752Z,47.57
2018-03-03T15:15:26.223Z,46.70
2018-03-03T15:17:53.730Z,48.13
2018-03-03T15:20:21.967Z,46.40
2018-03-03T15:22:49.496Z,45.97
2018-03-03T15:25:17.987Z,46.93
2018-03-03T15:27:45.586Z,48.60
2018-03-03T15:30:13.082Z,45.60
2018-03-03T15:32:40.566Z,47.40
2018-03-03T15:35:08.930Z,43.67
2018-03-03T15:37:36.397Z,45.90
2018-03-03T15:40:03.902Z,46.70
2018-03-03T15:42:31.364Z,46.57
2018-03-03T15:44:59.615Z,44.40
2018-03-03T15:47:27.112Z,45.00
2018-03-03T15:49:54.585Z,42.90
2018-03-03T15:52:23.021Z,47.10
2018-03-03T15:54:51.274Z,48.77
2018-03-03T15:57:18.801Z,45.17
2018-03-03T15:59:46.272Z,45.43
2018-03-03T16:02:13.759Z,45.20
2018-03-03T16:04:41.226Z,46.10
2018-03-03T16:07:08.714Z,48.90
2018-03-03T16:09:36.262Z,46.63
2018-03-03T16:12:04.495Z,45.90
2018-03-03T16:14:31.966Z,48.43
2018-03-03T16:16:59.461Z,45.90
2018-03-03T16:19:26.946Z,48.03
2018-03-03T16:21:54.413Z,49.13
2018-03-03T16:24:21.983Z,45.27
2018-03-03T16:35:29.599Z,50.87
2018-03-03T16:37:57.120Z,48.40
2018-03-03T16:40:24.697Z,45.10
2018-03-03T16:42:52.179Z,48.08
2018-03-03T16:45:19.658Z,45.53
2018-03-03T16:47:47.863Z,43.90
2018-03-03T16:50:15.794Z,48.60
2018-03-03T16:52:45.655Z,45.70
2018-03-03T16:55:13.194Z,44.93
2018-03-03T16:57:40.667Z,46.40
2018-03-03T17:00:08.131Z,44.63
2018-03-03T17:02:35.771Z,47.33
2018-03-03T17:05:03.256Z,48.20
2018-03-03T17:07:30.853Z,46.00
2018-03-03T17:09:59.107Z,47.20
2018-03-03T17:12:27.360Z,45.57
2018-03-03T17:14:54.839Z,49.08
2018-03-03T17:17:23.086Z,47.00
2018-03-03T17:19:50.562Z,45.43
2018-03-03T17:22:18.145Z,44.80
2018-03-03T17:24:46.421Z,45.57
2018-03-03T17:27:14.657Z,46.27
2018-03-03T17:29:42.128Z,46.53
2018-03-03T17:32:10.427Z,46.77
2018-03-03T17:34:39.103Z,43.60
2018-03-03T17:37:06.546Z,46.40
2018-03-03T17:39:34.119Z,45.03
2018-03-03T17:42:02.362Z,44.20
2018-03-03T17:44:31.742Z,48.83
2018-03-03T17:46:59.225Z,43.90
2018-03-03T17:49:26.696Z,45.40
2018-03-03T17:51:54.211Z,46.07
2018-03-03T17:54:21.722Z,42.07
2018-03-03T17:56:49.960Z,45.97
2018-03-03T17:59:17.424Z,44.83
2018-03-03T18:01:44.907Z,45.30
2018-03-03T18:04:13.885Z,43.10
2018-03-03T18:06:41.363Z,45.70
2018-03-03T18:09:09.643Z,46.50
2018-03-03T18:11:37.876Z,48.10
2018-03-03T18:14:05.404Z,46.20
2018-03-03T18:16:32.888Z,46.97
2018-03-03T18:19:01.207Z,46.47
2018-03-03T18:21:28.712Z,48.60
2018-03-03T18:23:56.190Z,45.50
2018-03-03T18:26:23.733Z,45.13
2018-03-03T18:28:51.419Z,45.70
2018-03-03T18:31:19.014Z,45.07
2018-03-03T18:33:47.282Z,45.67
2018-03-03T18:36:15.760Z,45.63
2018-03-03T18:38:43.243Z,44.73
2018-03-03T18:41:10.717Z,46.10
2018-03-03T18:43:38.218Z,48.23
2018-03-03T18:46:05.699Z,50.67
2018-03-03T18:48:33.935Z,49.40
2018-03-03T18:51:01.681Z,48.47
2018-03-03T18:53:29.147Z,47.53
2018-03-03T18:55:56.686Z,46.50
2018-03-03T18:58:24.899Z,49.50
2018-03-03T19:00:52.372Z,47.40
2018-03-03T19:03:20.727Z,45.33
2018-03-03T19:05:48.227Z,46.20
2018-03-03T19:08:15.696Z,43.80
2018-03-03T19:10:43.183Z,45.00
2018-03-03T19:13:11.103Z,44.10
2018-03-03T19:15:39.336Z,45.27
2018-03-03T19:18:06.826Z,43.60
2018-03-03T19:20:35.563Z,44.53
2018-03-03T19:23:03.035Z,45.93
2018-03-03T19:25:30.507Z,45.43
2018-03-03T19:27:58.076Z,47.77
2018-03-03T19:30:25.560Z,49.43
2018-03-03T19:32:53.043Z,53.90
2018-03-03T19:35:20.522Z,52.77
2018-03-03T19:37:48.918Z,48.33
2018-03-03T19:40:16.391Z,43.93
2018-03-03T19:42:44.640Z,45.60
2018-03-03T19:45:12.190Z,41.67
2018-03-03T19:47:39.651Z,41.27
2018-03-03T19:50:07.259Z,44.30
2018-03-03T19:52:34.755Z,47.30
2018-03-03T19:55:02.414Z,44.47
2018-03-03T19:57:30.325Z,43.20
2018-03-03T19:59:57.886Z,42.43
2018-03-03T20:02:26.146Z,42.77
2018-03-03T20:04:53.635Z,44.97
2018-03-03T20:07:21.138Z,42.60
2018-03-03T20:09:48.610Z,44.50
2018-03-03T20:12:16.092Z,44.07
2018-03-03T20:14:43.604Z,42.13
2018-03-03T20:17:11.095Z,44.10
2018-03-03T20:19:38.563Z,46.20
2018-03-03T20:22:06.828Z,44.20
2018-03-03T20:24:34.298Z,42.70
2018-03-03T20:27:02.578Z,46.67
2018-03-03T20:29:30.828Z,45.17
2018-03-03T20:31:58.304Z,44.50
2018-03-03T20:34:25.762Z,44.73
2018-03-03T20:36:54.015Z,47.17
2018-03-03T20:39:21.484Z,43.87
2018-03-03T20:41:48.987Z,45.90
2018-03-03T20:44:16.475Z,46.08
2018-03-03T20:46:43.972Z,40.70
2018-03-03T20:49:12.261Z,45.10
2018-03-03T20:51:39.814Z,43.97
2018-03-03T20:54:08.069Z,46.90
2018-03-03T20:56:35.541Z,48.20
2018-03-03T20:59:03.798Z,45.53
2018-03-03T21:01:31.356Z,45.47
2018-03-03T21:03:58.971Z,46.50
2018-03-03T21:06:26.474Z,46.30
2018-03-03T21:08:53.955Z,48.93
2018-03-03T21:11:25.876Z,50.63
2018-03-03T21:13:53.359Z,49.43
2018-03-03T21:16:21.754Z,46.83
2018-03-03T21:18:49.289Z,47.40
2018-03-03T21:21:16.766Z,50.00
2018-03-03T21:23:45.003Z,49.80
2018-03-03T21:26:12.496Z,47.37
2018-03-03T21:28:40.733Z,50.77
2018-03-03T21:31:08.314Z,50.67
2018-03-03T21:33:36.606Z,49.97
2018-03-03T21:36:05.875Z,45.20
2018-03-03T21:38:33.391Z,50.67
2018-03-03T21:41:00.898Z,50.43
2018-03-03T21:43:28.379Z,49.00
2018-03-03T21:45:57.243Z,50.23
2018-03-03T21:48:24.725Z,49.90
2018-03-03T21:50:53.035Z,51.80
2018-03-03T21:53:20.506Z,49.53
2018-03-03T21:55:48.087Z,52.10
2018-03-03T21:58:15.566Z,50.47
2018-03-03T22:00:43.812Z,50.27
2018-03-03T22:03:11.284Z,50.70
2018-03-03T22:05:38.763Z,52.03
2018-03-03T22:08:07.058Z,49.07
2018-03-03T22:10:34.608Z,50.47
2018-03-03T22:13:02.104Z,51.30
2018-03-03T22:15:29.574Z,50.10
2018-03-03T22:17:57.075Z,53.57
2018-03-03T22:20:24.583Z,53.20
2018-03-03T22:22:52.051Z,52.70
2018-03-03T22:25:19.652Z,51.17
2018-03-03T22:27:48.105Z,53.80
2018-03-03T22:30:16.354Z,51.00
2018-03-03T22:32:43.876Z,49.90
2018-03-03T22:35:11.356Z,50.10
2018-03-03T22:37:38.840Z,52.60
2018-03-03T22:40:06.366Z,52.70
2018-03-03T22:42:33.856Z,51.10
2018-03-03T22:45:01.333Z,55.00
2018-03-03T22:47:29.562Z,56.07
2018-03-03T22:49:57.054Z,53.50
2018-03-03T22:52:24.563Z,53.20
2018-03-03T22:54:52.030Z,51.43
2018-03-03T22:57:19.506Z,54.30
2018-03-03T22:59:47.098Z,52.10
2018-03-03T23:02:14.668Z,55.50
2018-03-03T23:04:42.907Z,54.07
2018-03-03T23:07:10.386Z,55.40
2018-03-03T23:09:37.854Z,51.23
2018-03-03T23:12:06.162Z,55.27
2018-03-03T23:14:33.638Z,56.20
2018-03-03T23:17:01.106Z,52.07
2018-03-03T23:19:29.255Z,52.30
2018-03-03T23:21:56.748Z,54.30
2018-03-03T23:24:24.234Z,53.47
2018-03-03T23:26:52.472Z,54.07
2018-03-03T23:29:19.960Z,54.57
2018-03-03T23:31:47.496Z,54.50
2018-03-03T23:34:14.973Z,53.93
2018-03-03T23:36:43.220Z,53.50
2018-03-03T23:39:10.695Z,55.10
2018-03-03T23:41:38.177Z,55.17
2018-03-03T23:44:06.433Z,56.13
2018-03-03T23:46:34.679Z,57.70
2018-03-03T23:49:02.267Z,53.93
2018-03-03T23:51:29.850Z,53.80
2018-03-03T23:53:57.321Z,54.93
2018-03-03T23:56:24.878Z,55.77
2018-03-03T23:58:52.351Z,56.77
